Terminal Aerodrome Forecast
Issued by NWS Kansas City/Pleasant Hill, MO

Home | Current Version | Previous Version | Text Only | Print | Product List | Glossary On
Versions: 1 2 3 4 5 6 7 8 9 10 11 12 13 14 15 16 17 18 19 20
000
FTUS43 KEAX 231726
TAFMCI
TAF
KMCI 231726Z 2318/2418 17017G22KT P6SM SCT050
     FM240300 18014KT P6SM SCT150 WS020/19050KT
     FM241400 19016G28KT P6SM VCSH BKN040=

USA.gov is the U.S. government's official web portal to all federal, state and local government web resources and services.